sensor_id;sensor_type;location;lat;lon;timestamp;P1;durP1;ratioP1;P2;durP2;ratioP2
63817;SDS011;53093;55.092;73.476;2022-08-19T00:01:47;0.93;;;0.60;;
63817;SDS011;53093;55.092;73.476;2022-08-19T00:04:15;1.38;;;0.70;;
63817;SDS011;53093;55.092;73.476;2022-08-19T00:06:42;1.00;;;0.70;;
63817;SDS011;53093;55.092;73.476;2022-08-19T00:09:28;0.75;;;0.60;;
63817;SDS011;53093;55.092;73.476;2022-08-19T00:12:01;0.65;;;0.60;;
63817;SDS011;53093;55.092;73.476;2022-08-19T00:14:28;1.90;;;0.60;;
63817;SDS011;53093;55.092;73.476;2022-08-19T00:16:58;0.63;;;0.63;;
63817;SDS011;53093;55.092;73.476;2022-08-19T00:19:25;0.77;;;0.60;;
63817;SDS011;53093;55.092;73.476;2022-08-19T00:21:52;0.70;;;0.70;;
63817;SDS011;53093;55.092;73.476;2022-08-19T00:24:19;0.70;;;0.60;;
63817;SDS011;53093;55.092;73.476;2022-08-19T00:26:46;1.90;;;0.80;;
63817;SDS011;53093;55.092;73.476;2022-08-19T00:29:16;0.60;;;0.60;;
63817;SDS011;53093;55.092;73.476;2022-08-19T00:31:43;1.95;;;0.80;;
63817;SDS011;53093;55.092;73.476;2022-08-19T00:34:11;1.85;;;0.70;;
63817;SDS011;53093;55.092;73.476;2022-08-19T00:36:39;1.25;;;0.60;;
63817;SDS011;53093;55.092;73.476;2022-08-19T00:39:06;0.70;;;0.70;;
63817;SDS011;53093;55.092;73.476;2022-08-19T00:41:33;0.60;;;0.60;;
63817;SDS011;53093;55.092;73.476;2022-08-19T00:44:07;0.90;;;0.80;;
63817;SDS011;53093;55.092;73.476;2022-08-19T00:46:54;1.75;;;0.60;;
63817;SDS011;53093;55.092;73.476;2022-08-19T00:49:29;0.60;;;0.52;;
63817;SDS011;53093;55.092;73.476;2022-08-19T00:52:02;0.65;;;0.50;;
63817;SDS011;53093;55.092;73.476;2022-08-19T00:54:30;0.60;;;0.60;;
63817;SDS011;53093;55.092;73.476;2022-08-19T00:56:59;2.58;;;0.85;;
63817;SDS011;53093;55.092;73.476;2022-08-19T00:59:26;1.08;;;0.70;;
63817;SDS011;53093;55.092;73.476;2022-08-19T01:01:54;1.05;;;0.70;;
63817;SDS011;53093;55.092;73.476;2022-08-19T01:04:26;1.95;;;0.60;;
63817;SDS011;53093;55.092;73.476;2022-08-19T01:06:53;2.83;;;0.57;;
63817;SDS011;53093;55.092;73.476;2022-08-19T01:09:20;0.60;;;0.60;;
63817;SDS011;53093;55.092;73.476;2022-08-19T01:11:47;0.60;;;0.60;;
63817;SDS011;53093;55.092;73.476;2022-08-19T01:14:14;1.35;;;0.50;;
63817;SDS011;53093;55.092;73.476;2022-08-19T01:16:42;0.95;;;0.60;;
63817;SDS011;53093;55.092;73.476;2022-08-19T01:19:16;1.20;;;0.70;;
63817;SDS011;53093;55.092;73.476;2022-08-19T01:21:47;1.60;;;0.70;;
63817;SDS011;53093;55.092;73.476;2022-08-19T01:24:17;2.25;;;0.70;;
63817;SDS011;53093;55.092;73.476;2022-08-19T01:26:44;1.95;;;0.70;;
63817;SDS011;53093;55.092;73.476;2022-08-19T01:29:11;2.67;;;0.70;;
63817;SDS011;53093;55.092;73.476;2022-08-19T01:31:38;0.70;;;0.70;;
63817;SDS011;53093;55.092;73.476;2022-08-19T01:34:06;0.82;;;0.55;;
63817;SDS011;53093;55.092;73.476;2022-08-19T01:36:38;2.45;;;0.70;;
63817;SDS011;53093;55.092;73.476;2022-08-19T01:39:06;1.33;;;0.70;;
63817;SDS011;53093;55.092;73.476;2022-08-19T01:41:34;1.48;;;0.60;;
63817;SDS011;53093;55.092;73.476;2022-08-19T01:44:01;1.58;;;0.70;;
63817;SDS011;53093;55.092;73.476;2022-08-19T01:46:30;0.70;;;0.70;;
63817;SDS011;53093;55.092;73.476;2022-08-19T01:48:58;1.90;;;0.70;;
63817;SDS011;53093;55.092;73.476;2022-08-19T01:51:26;1.65;;;0.60;;
63817;SDS011;53093;55.092;73.476;2022-08-19T01:53:53;0.80;;;0.80;;
63817;SDS011;53093;55.092;73.476;2022-08-19T01:56:20;0.90;;;0.50;;
63817;SDS011;53093;55.092;73.476;2022-08-19T01:58:58;2.53;;;0.70;;
63817;SDS011;53093;55.092;73.476;2022-08-19T02:01:26;14.98;;;1.40;;
63817;SDS011;53093;55.092;73.476;2022-08-19T02:03:53;1.02;;;0.50;;
63817;SDS011;53093;55.092;73.476;2022-08-19T02:06:20;1.17;;;0.90;;
63817;SDS011;53093;55.092;73.476;2022-08-19T02:08:47;5.78;;;0.80;;
63817;SDS011;53093;55.092;73.476;2022-08-19T02:11:22;2.00;;;0.90;;
63817;SDS011;53093;55.092;73.476;2022-08-19T02:13:49;0.73;;;0.60;;
63817;SDS011;53093;55.092;73.476;2022-08-19T02:16:17;0.63;;;0.60;;
63817;SDS011;53093;55.092;73.476;2022-08-19T02:18:44;1.55;;;0.65;;
63817;SDS011;53093;55.092;73.476;2022-08-19T02:21:12;2.42;;;0.68;;
63817;SDS011;53093;55.092;73.476;2022-08-19T02:23:49;1.48;;;0.57;;
63817;SDS011;53093;55.092;73.476;2022-08-19T02:26:17;1.88;;;0.50;;
63817;SDS011;53093;55.092;73.476;2022-08-19T02:28:44;0.95;;;0.60;;
63817;SDS011;53093;55.092;73.476;2022-08-19T02:31:13;0.77;;;0.77;;
63817;SDS011;53093;55.092;73.476;2022-08-19T02:33:44;0.85;;;0.70;;
63817;SDS011;53093;55.092;73.476;2022-08-19T02:36:11;3.10;;;0.70;;
63817;SDS011;53093;55.092;73.476;2022-08-19T02:38:48;4.75;;;1.02;;
63817;SDS011;53093;55.092;73.476;2022-08-19T02:41:16;2.47;;;0.65;;
63817;SDS011;53093;55.092;73.476;2022-08-19T02:43:44;3.88;;;0.70;;
63817;SDS011;53093;55.092;73.476;2022-08-19T02:46:18;1.20;;;0.57;;
63817;SDS011;53093;55.092;73.476;2022-08-19T02:48:48;2.65;;;0.90;;
63817;SDS011;53093;55.092;73.476;2022-08-19T02:51:16;3.13;;;0.80;;
63817;SDS011;53093;55.092;73.476;2022-08-19T02:53:43;1.52;;;0.60;;
63817;SDS011;53093;55.092;73.476;2022-08-19T02:56:11;3.13;;;0.57;;
63817;SDS011;53093;55.092;73.476;2022-08-19T02:58:38;0.68;;;0.60;;
63817;SDS011;53093;55.092;73.476;2022-08-19T03:01:05;8.65;;;0.90;;
63817;SDS011;53093;55.092;73.476;2022-08-19T03:03:32;0.50;;;0.50;;
63817;SDS011;53093;55.092;73.476;2022-08-19T03:06:04;1.80;;;0.63;;
63817;SDS011;53093;55.092;73.476;2022-08-19T03:08:38;1.15;;;0.70;;
63817;SDS011;53093;55.092;73.476;2022-08-19T03:11:06;1.75;;;0.60;;
63817;SDS011;53093;55.092;73.476;2022-08-19T03:13:33;1.65;;;0.55;;
63817;SDS011;53093;55.092;73.476;2022-08-19T03:16:00;1.65;;;0.50;;
63817;SDS011;53093;55.092;73.476;2022-08-19T03:18:41;0.68;;;0.68;;
63817;SDS011;53093;55.092;73.476;2022-08-19T03:21:08;2.95;;;0.80;;
63817;SDS011;53093;55.092;73.476;2022-08-19T03:23:35;38.78;;;2.53;;
63817;SDS011;53093;55.092;73.476;2022-08-19T03:26:07;3.47;;;0.80;;
63817;SDS011;53093;55.092;73.476;2022-08-19T03:28:34;1.17;;;0.60;;
63817;SDS011;53093;55.092;73.476;2022-08-19T03:31:03;2.70;;;0.77;;
63817;SDS011;53093;55.092;73.476;2022-08-19T03:33:30;1.27;;;0.50;;
63817;SDS011;53093;55.092;73.476;2022-08-19T03:36:05;6.55;;;0.60;;
63817;SDS011;53093;55.092;73.476;2022-08-19T03:38:35;2.90;;;0.63;;
63817;SDS011;53093;55.092;73.476;2022-08-19T03:41:03;1.90;;;0.70;;
63817;SDS011;53093;55.092;73.476;2022-08-19T03:43:34;1.30;;;0.50;;
63817;SDS011;53093;55.092;73.476;2022-08-19T03:46:02;5.80;;;0.90;;
63817;SDS011;53093;55.092;73.476;2022-08-19T03:48:31;1.10;;;0.60;;
63817;SDS011;53093;55.092;73.476;2022-08-19T03:50:58;3.65;;;1.20;;
63817;SDS011;53093;55.092;73.476;2022-08-19T03:53:27;5.15;;;0.65;;
63817;SDS011;53093;55.092;73.476;2022-08-19T03:55:54;1.02;;;0.70;;
63817;SDS011;53093;55.092;73.476;2022-08-19T03:58:22;2.65;;;0.80;;
63817;SDS011;53093;55.092;73.476;2022-08-19T04:00:49;1.75;;;0.60;;
63817;SDS011;53093;55.092;73.476;2022-08-19T04:03:16;4.60;;;0.80;;
63817;SDS011;53093;55.092;73.476;2022-08-19T04:05:54;1.35;;;0.70;;
63817;SDS011;53093;55.092;73.476;2022-08-19T04:08:21;2.05;;;0.70;;
63817;SDS011;53093;55.092;73.476;2022-08-19T04:10:49;2.30;;;0.60;;
63817;SDS011;53093;55.092;73.476;2022-08-19T04:13:26;9.07;;;1.17;;
63817;SDS011;53093;55.092;73.476;2022-08-19T04:15:54;4.88;;;0.68;;
63817;SDS011;53093;55.092;73.476;2022-08-19T04:18:20;3.08;;;0.60;;
63817;SDS011;53093;55.092;73.476;2022-08-19T04:20:47;2.72;;;0.63;;
63817;SDS011;53093;55.092;73.476;2022-08-19T04:23:15;0.60;;;0.55;;
63817;SDS011;53093;55.092;73.476;2022-08-19T04:25:43;2.17;;;0.65;;
63817;SDS011;53093;55.092;73.476;2022-08-19T04:28:12;2.55;;;0.70;;
63817;SDS011;53093;55.092;73.476;2022-08-19T04:30:45;2.08;;;0.80;;
63817;SDS011;53093;55.092;73.476;2022-08-19T04:33:19;1.60;;;0.70;;
63817;SDS011;53093;55.092;73.476;2022-08-19T04:35:56;0.60;;;0.60;;
63817;SDS011;53093;55.092;73.476;2022-08-19T04:38:24;4.25;;;0.82;;
63817;SDS011;53093;55.092;73.476;2022-08-19T04:40:51;1.80;;;0.70;;
63817;SDS011;53093;55.092;73.476;2022-08-19T04:43:37;1.88;;;1.08;;
63817;SDS011;53093;55.092;73.476;2022-08-19T04:46:11;1.45;;;0.70;;
63817;SDS011;53093;55.092;73.476;2022-08-19T04:48:39;21.35;;;1.77;;
63817;SDS011;53093;55.092;73.476;2022-08-19T04:51:07;1.55;;;1.00;;
63817;SDS011;53093;55.092;73.476;2022-08-19T04:53:36;1.75;;;1.42;;
63817;SDS011;53093;55.092;73.476;2022-08-19T04:56:08;2.30;;;0.70;;
63817;SDS011;53093;55.092;73.476;2022-08-19T04:58:36;2.25;;;0.80;;
63817;SDS011;53093;55.092;73.476;2022-08-19T05:01:14;4.32;;;0.90;;
63817;SDS011;53093;55.092;73.476;2022-08-19T05:03:43;5.05;;;1.00;;
63817;SDS011;53093;55.092;73.476;2022-08-19T05:06:21;3.55;;;0.80;;
63817;SDS011;53093;55.092;73.476;2022-08-19T05:08:48;1.38;;;1.00;;
63817;SDS011;53093;55.092;73.476;2022-08-19T05:11:19;1.10;;;0.80;;
63817;SDS011;53093;55.092;73.476;2022-08-19T05:13:49;0.70;;;0.70;;
63817;SDS011;53093;55.092;73.476;2022-08-19T05:16:17;1.80;;;0.90;;
63817;SDS011;53093;55.092;73.476;2022-08-19T05:18:44;5.57;;;1.33;;
63817;SDS011;53093;55.092;73.476;2022-08-19T05:21:29;0.80;;;0.80;;
63817;SDS011;53093;55.092;73.476;2022-08-19T05:24:16;8.48;;;1.33;;
63817;SDS011;53093;55.092;73.476;2022-08-19T05:26:44;1.20;;;1.10;;
63817;SDS011;53093;55.092;73.476;2022-08-19T05:29:13;3.08;;;0.68;;
63817;SDS011;53093;55.092;73.476;2022-08-19T05:31:45;3.00;;;0.80;;
63817;SDS011;53093;55.092;73.476;2022-08-19T05:34:13;0.93;;;0.60;;
63817;SDS011;53093;55.092;73.476;2022-08-19T05:36:41;2.15;;;0.60;;
63817;SDS011;53093;55.092;73.476;2022-08-19T05:39:16;4.10;;;0.95;;
63817;SDS011;53093;55.092;73.476;2022-08-19T05:41:51;3.05;;;0.90;;
63817;SDS011;53093;55.092;73.476;2022-08-19T05:44:19;2.30;;;0.60;;
63817;SDS011;53093;55.092;73.476;2022-08-19T05:46:51;2.53;;;0.90;;
63817;SDS011;53093;55.092;73.476;2022-08-19T05:49:20;1.85;;;0.70;;
63817;SDS011;53093;55.092;73.476;2022-08-19T05:51:48;2.13;;;0.80;;
63817;SDS011;53093;55.092;73.476;2022-08-19T05:54:16;4.57;;;0.80;;
63817;SDS011;53093;55.092;73.476;2022-08-19T05:56:54;2.00;;;0.80;;
63817;SDS011;53093;55.092;73.476;2022-08-19T05:59:21;4.97;;;1.00;;
63817;SDS011;53093;55.092;73.476;2022-08-19T06:01:57;0.93;;;0.90;;
63817;SDS011;53093;55.092;73.476;2022-08-19T06:04:24;1.05;;;0.90;;
63817;SDS011;53093;55.092;73.476;2022-08-19T06:06:53;1.58;;;0.80;;
63817;SDS011;53093;55.092;73.476;2022-08-19T06:09:20;3.55;;;1.02;;
63817;SDS011;53093;55.092;73.476;2022-08-19T06:11:49;1.50;;;0.80;;
63817;SDS011;53093;55.092;73.476;2022-08-19T06:14:23;5.13;;;0.80;;
63817;SDS011;53093;55.092;73.476;2022-08-19T06:16:52;1.00;;;0.77;;
63817;SDS011;53093;55.092;73.476;2022-08-19T06:19:20;1.95;;;0.80;;
63817;SDS011;53093;55.092;73.476;2022-08-19T06:21:48;1.17;;;0.90;;
63817;SDS011;53093;55.092;73.476;2022-08-19T06:24:16;1.13;;;0.80;;
63817;SDS011;53093;55.092;73.476;2022-08-19T06:26:44;1.55;;;0.90;;
63817;SDS011;53093;55.092;73.476;2022-08-19T06:29:12;1.95;;;0.93;;
63817;SDS011;53093;55.092;73.476;2022-08-19T06:31:49;1.25;;;0.90;;
63817;SDS011;53093;55.092;73.476;2022-08-19T06:34:17;1.33;;;0.80;;
63817;SDS011;53093;55.092;73.476;2022-08-19T06:36:46;3.80;;;0.90;;
63817;SDS011;53093;55.092;73.476;2022-08-19T06:39:15;2.63;;;0.80;;
63817;SDS011;53093;55.092;73.476;2022-08-19T06:41:43;3.47;;;0.90;;
63817;SDS011;53093;55.092;73.476;2022-08-19T06:44:21;0.70;;;0.70;;
63817;SDS011;53093;55.092;73.476;2022-08-19T06:46:56;0.88;;;0.88;;
63817;SDS011;53093;55.092;73.476;2022-08-19T06:49:23;16.85;;;1.67;;
63817;SDS011;53093;55.092;73.476;2022-08-19T06:51:57;2.95;;;1.10;;
63817;SDS011;53093;55.092;73.476;2022-08-19T06:54:25;1.42;;;0.95;;
63817;SDS011;53093;55.092;73.476;2022-08-19T06:56:53;6.88;;;1.30;;
63817;SDS011;53093;55.092;73.476;2022-08-19T06:59:21;1.67;;;1.00;;
63817;SDS011;53093;55.092;73.476;2022-08-19T07:01:51;0.90;;;0.90;;
63817;SDS011;53093;55.092;73.476;2022-08-19T07:04:22;18.90;;;1.60;;
63817;SDS011;53093;55.092;73.476;2022-08-19T07:06:50;1.98;;;1.00;;
63817;SDS011;53093;55.092;73.476;2022-08-19T07:09:18;1.45;;;0.80;;
63817;SDS011;53093;55.092;73.476;2022-08-19T07:11:47;9.88;;;1.35;;
63817;SDS011;53093;55.092;73.476;2022-08-19T07:14:16;1.52;;;0.90;;
63817;SDS011;53093;55.092;73.476;2022-08-19T07:16:44;1.35;;;1.00;;
63817;SDS011;53093;55.092;73.476;2022-08-19T07:19:18;3.35;;;1.40;;
63817;SDS011;53093;55.092;73.476;2022-08-19T07:21:50;4.03;;;1.00;;
63817;SDS011;53093;55.092;73.476;2022-08-19T07:24:24;1.75;;;1.10;;
63817;SDS011;53093;55.092;73.476;2022-08-19T07:27:03;6.43;;;1.38;;
63817;SDS011;53093;55.092;73.476;2022-08-19T07:29:32;1.20;;;1.00;;
63817;SDS011;53093;55.092;73.476;2022-08-19T07:32:00;1.42;;;0.90;;
63817;SDS011;53093;55.092;73.476;2022-08-19T07:34:28;1.27;;;1.00;;
63817;SDS011;53093;55.092;73.476;2022-08-19T07:36:55;1.73;;;0.90;;
63817;SDS011;53093;55.092;73.476;2022-08-19T07:39:24;2.83;;;1.00;;
63817;SDS011;53093;55.092;73.476;2022-08-19T07:41:51;1.73;;;1.00;;
63817;SDS011;53093;55.092;73.476;2022-08-19T07:44:19;2.28;;;0.90;;
63817;SDS011;53093;55.092;73.476;2022-08-19T07:46:48;7.75;;;1.20;;
63817;SDS011;53093;55.092;73.476;2022-08-19T07:49:17;3.45;;;1.00;;
63817;SDS011;53093;55.092;73.476;2022-08-19T07:51:47;1.20;;;0.90;;
63817;SDS011;53093;55.092;73.476;2022-08-19T07:54:14;2.58;;;1.15;;
63817;SDS011;53093;55.092;73.476;2022-08-19T07:56:41;1.42;;;1.20;;
63817;SDS011;53093;55.092;73.476;2022-08-19T07:59:08;1.15;;;1.10;;
63817;SDS011;53093;55.092;73.476;2022-08-19T08:01:45;1.52;;;1.10;;
63817;SDS011;53093;55.092;73.476;2022-08-19T08:04:12;3.03;;;1.05;;
63817;SDS011;53093;55.092;73.476;2022-08-19T08:06:58;6.60;;;1.30;;
63817;SDS011;53093;55.092;73.476;2022-08-19T08:09:43;6.28;;;1.30;;
63817;SDS011;53093;55.092;73.476;2022-08-19T08:12:19;1.95;;;1.23;;
63817;SDS011;53093;55.092;73.476;2022-08-19T08:17:14;1.33;;;1.17;;
63817;SDS011;53093;55.092;73.476;2022-08-19T08:19:42;3.80;;;1.48;;
63817;SDS011;53093;55.092;73.476;2022-08-19T08:22:20;3.20;;;1.30;;
63817;SDS011;53093;55.092;73.476;2022-08-19T08:25:07;2.15;;;1.20;;
63817;SDS011;53093;55.092;73.476;2022-08-19T08:27:36;4.68;;;1.50;;
63817;SDS011;53093;55.092;73.476;2022-08-19T08:30:09;5.68;;;1.60;;
63817;SDS011;53093;55.092;73.476;2022-08-19T08:32:46;6.88;;;1.75;;
63817;SDS011;53093;55.092;73.476;2022-08-19T08:35:14;9.20;;;1.77;;
63817;SDS011;53093;55.092;73.476;2022-08-19T08:37:43;3.35;;;1.65;;
63817;SDS011;53093;55.092;73.476;2022-08-19T08:42:40;4.60;;;1.90;;
63817;SDS011;53093;55.092;73.476;2022-08-19T08:45:12;1.88;;;1.73;;
63817;SDS011;53093;55.092;73.476;2022-08-19T08:47:48;3.03;;;1.90;;
63817;SDS011;53093;55.092;73.476;2022-08-19T08:50:27;6.20;;;2.30;;
63817;SDS011;53093;55.092;73.476;2022-08-19T08:52:56;3.95;;;2.20;;
63817;SDS011;53093;55.092;73.476;2022-08-19T08:55:25;3.35;;;1.90;;
63817;SDS011;53093;55.092;73.476;2022-08-19T08:57:56;2.42;;;1.80;;
63817;SDS011;53093;55.092;73.476;2022-08-19T09:00:32;4.68;;;2.13;;
63817;SDS011;53093;55.092;73.476;2022-08-19T09:03:01;2.92;;;2.00;;
63817;SDS011;53093;55.092;73.476;2022-08-19T09:05:44;5.43;;;2.20;;
63817;SDS011;53093;55.092;73.476;2022-08-19T09:10:56;5.75;;;2.58;;
63817;SDS011;53093;55.092;73.476;2022-08-19T09:19:05;8.15;;;2.95;;
63817;SDS011;53093;55.092;73.476;2022-08-19T09:21:31;4.57;;;3.05;;
63817;SDS011;53093;55.092;73.476;2022-08-19T09:23:58;4.28;;;3.45;;
63817;SDS011;53093;55.092;73.476;2022-08-19T09:26:35;7.47;;;4.10;;
63817;SDS011;53093;55.092;73.476;2022-08-19T09:29:02;7.70;;;4.43;;
63817;SDS011;53093;55.092;73.476;2022-08-19T09:31:36;5.13;;;4.22;;
63817;SDS011;53093;55.092;73.476;2022-08-19T09:34:04;11.27;;;4.15;;
63817;SDS011;53093;55.092;73.476;2022-08-19T09:36:31;4.57;;;4.00;;
63817;SDS011;53093;55.092;73.476;2022-08-19T09:39:05;5.50;;;4.20;;
63817;SDS011;53093;55.092;73.476;2022-08-19T09:41:37;4.40;;;3.90;;
63817;SDS011;53093;55.092;73.476;2022-08-19T09:44:05;4.75;;;4.25;;
63817;SDS011;53093;55.092;73.476;2022-08-19T09:46:33;5.18;;;4.28;;
63817;SDS011;53093;55.092;73.476;2022-08-19T09:49:05;7.85;;;4.45;;
63817;SDS011;53093;55.092;73.476;2022-08-19T09:51:33;5.13;;;4.63;;
63817;SDS011;53093;55.092;73.476;2022-08-19T09:54:00;9.70;;;5.13;;
63817;SDS011;53093;55.092;73.476;2022-08-19T09:56:29;5.88;;;5.00;;
63817;SDS011;53093;55.092;73.476;2022-08-19T09:59:00;9.40;;;5.00;;
63817;SDS011;53093;55.092;73.476;2022-08-19T10:01:37;7.70;;;4.93;;
63817;SDS011;53093;55.092;73.476;2022-08-19T10:04:10;6.13;;;4.57;;
63817;SDS011;53093;55.092;73.476;2022-08-19T10:06:38;5.75;;;4.57;;
63817;SDS011;53093;55.092;73.476;2022-08-19T10:09:06;5.22;;;4.68;;
63817;SDS011;53093;55.092;73.476;2022-08-19T10:11:34;4.63;;;4.13;;
63817;SDS011;53093;55.092;73.476;2022-08-19T10:14:02;5.97;;;4.50;;
63817;SDS011;53093;55.092;73.476;2022-08-19T10:16:38;4.55;;;4.15;;
63817;SDS011;53093;55.092;73.476;2022-08-19T10:19:06;6.78;;;4.22;;
63817;SDS011;53093;55.092;73.476;2022-08-19T10:21:38;7.85;;;5.78;;
63817;SDS011;53093;55.092;73.476;2022-08-19T10:24:06;11.20;;;9.63;;
63817;SDS011;53093;55.092;73.476;2022-08-19T10:26:36;7.57;;;5.75;;
63817;SDS011;53093;55.092;73.476;2022-08-19T10:29:08;7.40;;;5.80;;
63817;SDS011;53093;55.092;73.476;2022-08-19T10:31:41;5.80;;;5.20;;
63817;SDS011;53093;55.092;73.476;2022-08-19T10:34:13;7.68;;;5.38;;
63817;SDS011;53093;55.092;73.476;2022-08-19T10:36:50;6.60;;;6.00;;
63817;SDS011;53093;55.092;73.476;2022-08-19T10:39:17;4.72;;;4.15;;
63817;SDS011;53093;55.092;73.476;2022-08-19T10:41:44;3.90;;;3.50;;
63817;SDS011;53093;55.092;73.476;2022-08-19T10:44:12;4.43;;;3.30;;
63817;SDS011;53093;55.092;73.476;2022-08-19T10:46:40;5.20;;;3.45;;
63817;SDS011;53093;55.092;73.476;2022-08-19T10:49:18;10.93;;;6.50;;
63817;SDS011;53093;55.092;73.476;2022-08-19T10:51:45;10.52;;;6.47;;
63817;SDS011;53093;55.092;73.476;2022-08-19T10:54:32;8.32;;;5.30;;
63817;SDS011;53093;55.092;73.476;2022-08-19T10:57:17;10.05;;;6.45;;
63817;SDS011;53093;55.092;73.476;2022-08-19T10:59:44;11.32;;;7.18;;
63817;SDS011;53093;55.092;73.476;2022-08-19T11:02:11;6.68;;;4.20;;
63817;SDS011;53093;55.092;73.476;2022-08-19T11:04:45;3.13;;;2.40;;
63817;SDS011;53093;55.092;73.476;2022-08-19T11:07:12;3.40;;;2.70;;
63817;SDS011;53093;55.092;73.476;2022-08-19T11:09:48;2.63;;;2.35;;
63817;SDS011;53093;55.092;73.476;2022-08-19T11:12:15;2.42;;;2.17;;
63817;SDS011;53093;55.092;73.476;2022-08-19T11:14:43;2.88;;;2.40;;
63817;SDS011;53093;55.092;73.476;2022-08-19T11:17:10;3.58;;;2.20;;
63817;SDS011;53093;55.092;73.476;2022-08-19T11:19:40;3.88;;;2.42;;
63817;SDS011;53093;55.092;73.476;2022-08-19T11:22:07;2.67;;;2.42;;
63817;SDS011;53093;55.092;73.476;2022-08-19T11:24:35;3.05;;;2.80;;
63817;SDS011;53093;55.092;73.476;2022-08-19T11:27:04;2.55;;;2.35;;
63817;SDS011;53093;55.092;73.476;2022-08-19T11:29:31;2.58;;;2.38;;
63817;SDS011;53093;55.092;73.476;2022-08-19T11:32:02;2.83;;;2.50;;
63817;SDS011;53093;55.092;73.476;2022-08-19T11:34:30;3.30;;;3.00;;
63817;SDS011;53093;55.092;73.476;2022-08-19T11:36:57;2.70;;;2.50;;
63817;SDS011;53093;55.092;73.476;2022-08-19T11:39:26;2.85;;;2.65;;
63817;SDS011;53093;55.092;73.476;2022-08-19T11:41:53;3.10;;;2.80;;
63817;SDS011;53093;55.092;73.476;2022-08-19T11:44:20;4.75;;;2.85;;
63817;SDS011;53093;55.092;73.476;2022-08-19T11:46:47;3.00;;;2.70;;
63817;SDS011;53093;55.092;73.476;2022-08-19T11:49:16;3.65;;;3.35;;
63817;SDS011;53093;55.092;73.476;2022-08-19T11:51:45;3.35;;;3.05;;
63817;SDS011;53093;55.092;73.476;2022-08-19T11:54:13;3.28;;;2.97;;
63817;SDS011;53093;55.092;73.476;2022-08-19T11:56:41;3.00;;;2.70;;
63817;SDS011;53093;55.092;73.476;2022-08-19T11:59:14;3.95;;;3.15;;
63817;SDS011;53093;55.092;73.476;2022-08-19T12:01:41;4.05;;;3.00;;
63817;SDS011;53093;55.092;73.476;2022-08-19T12:04:13;3.30;;;2.80;;
63817;SDS011;53093;55.092;73.476;2022-08-19T12:06:40;2.88;;;2.67;;
63817;SDS011;53093;55.092;73.476;2022-08-19T12:09:12;3.13;;;2.83;;
63817;SDS011;53093;55.092;73.476;2022-08-19T12:11:40;3.20;;;2.90;;
63817;SDS011;53093;55.092;73.476;2022-08-19T12:14:09;4.40;;;2.78;;
63817;SDS011;53093;55.092;73.476;2022-08-19T12:16:47;3.53;;;2.75;;
63817;SDS011;53093;55.092;73.476;2022-08-19T12:19:14;4.38;;;2.60;;
63817;SDS011;53093;55.092;73.476;2022-08-19T12:21:42;3.30;;;2.97;;
63817;SDS011;53093;55.092;73.476;2022-08-19T12:24:10;3.08;;;2.78;;
63817;SDS011;53093;55.092;73.476;2022-08-19T12:26:42;3.60;;;2.80;;
63817;SDS011;53093;55.092;73.476;2022-08-19T12:29:13;4.45;;;3.15;;
63817;SDS011;53093;55.092;73.476;2022-08-19T12:31:41;4.13;;;2.80;;
63817;SDS011;53093;55.092;73.476;2022-08-19T12:34:08;3.58;;;2.90;;
63817;SDS011;53093;55.092;73.476;2022-08-19T12:36:35;2.90;;;2.60;;
63817;SDS011;53093;55.092;73.476;2022-08-19T12:39:03;3.25;;;2.80;;
63817;SDS011;53093;55.092;73.476;2022-08-19T12:41:30;3.10;;;2.80;;
63817;SDS011;53093;55.092;73.476;2022-08-19T12:43:57;3.25;;;2.92;;
63817;SDS011;53093;55.092;73.476;2022-08-19T12:46:25;2.97;;;2.67;;
63817;SDS011;53093;55.092;73.476;2022-08-19T12:48:52;2.88;;;2.67;;
63817;SDS011;53093;55.092;73.476;2022-08-19T12:51:20;2.75;;;2.40;;
63817;SDS011;53093;55.092;73.476;2022-08-19T12:53:48;2.60;;;2.40;;
63817;SDS011;53093;55.092;73.476;2022-08-19T12:56:16;3.55;;;3.17;;
63817;SDS011;53093;55.092;73.476;2022-08-19T12:58:43;2.75;;;2.55;;
63817;SDS011;53093;55.092;73.476;2022-08-19T13:01:14;3.30;;;2.53;;
63817;SDS011;53093;55.092;73.476;2022-08-19T13:03:42;3.00;;;2.70;;
63817;SDS011;53093;55.092;73.476;2022-08-19T13:06:09;4.82;;;4.32;;
63817;SDS011;53093;55.092;73.476;2022-08-19T13:08:36;9.50;;;8.50;;
63817;SDS011;53093;55.092;73.476;2022-08-19T13:11:13;6.47;;;5.85;;
63817;SDS011;53093;55.092;73.476;2022-08-19T13:13:44;7.10;;;6.40;;
63817;SDS011;53093;55.092;73.476;2022-08-19T13:16:16;4.72;;;3.83;;
63817;SDS011;53093;55.092;73.476;2022-08-19T13:18:44;3.85;;;3.50;;
63817;SDS011;53093;55.092;73.476;2022-08-19T13:21:13;11.27;;;10.27;;
63817;SDS011;53093;55.092;73.476;2022-08-19T13:23:41;6.80;;;6.20;;
63817;SDS011;53093;55.092;73.476;2022-08-19T13:26:08;4.20;;;3.30;;
63817;SDS011;53093;55.092;73.476;2022-08-19T13:28:36;4.00;;;3.60;;
63817;SDS011;53093;55.092;73.476;2022-08-19T13:31:22;6.82;;;3.80;;
63817;SDS011;53093;55.092;73.476;2022-08-19T13:34:08;3.40;;;3.10;;
63817;SDS011;53093;55.092;73.476;2022-08-19T13:36:35;4.15;;;3.40;;
63817;SDS011;53093;55.092;73.476;2022-08-19T13:39:03;4.00;;;3.20;;
63817;SDS011;53093;55.092;73.476;2022-08-19T13:41:43;3.58;;;3.10;;
63817;SDS011;53093;55.092;73.476;2022-08-19T13:44:17;3.50;;;3.20;;
63817;SDS011;53093;55.092;73.476;2022-08-19T13:46:47;3.90;;;3.42;;
63817;SDS011;53093;55.092;73.476;2022-08-19T13:49:15;3.75;;;3.45;;
63817;SDS011;53093;55.092;73.476;2022-08-19T13:51:42;5.10;;;4.60;;
63817;SDS011;53093;55.092;73.476;2022-08-19T13:54:09;12.15;;;11.15;;
63817;SDS011;53093;55.092;73.476;2022-08-19T13:56:43;8.40;;;7.60;;
63817;SDS011;53093;55.092;73.476;2022-08-19T13:59:10;5.82;;;5.25;;
63817;SDS011;53093;55.092;73.476;2022-08-19T14:01:42;5.45;;;4.20;;
63817;SDS011;53093;55.092;73.476;2022-08-19T14:04:09;4.60;;;3.33;;
63817;SDS011;53093;55.092;73.476;2022-08-19T14:06:36;4.45;;;3.45;;
63817;SDS011;53093;55.092;73.476;2022-08-19T14:09:03;4.35;;;3.90;;
63817;SDS011;53093;55.092;73.476;2022-08-19T14:11:31;4.88;;;4.13;;
63817;SDS011;53093;55.092;73.476;2022-08-19T14:13:58;4.45;;;4.05;;
63817;SDS011;53093;55.092;73.476;2022-08-19T14:16:25;4.88;;;3.90;;
63817;SDS011;53093;55.092;73.476;2022-08-19T14:18:53;5.15;;;4.13;;
63817;SDS011;53093;55.092;73.476;2022-08-19T14:21:21;5.28;;;4.25;;
63817;SDS011;53093;55.092;73.476;2022-08-19T14:23:50;4.63;;;3.85;;
63817;SDS011;53093;55.092;73.476;2022-08-19T14:26:17;6.97;;;4.32;;
63817;SDS011;53093;55.092;73.476;2022-08-19T14:28:45;5.05;;;4.43;;
63817;SDS011;53093;55.092;73.476;2022-08-19T14:31:13;6.55;;;4.45;;
63817;SDS011;53093;55.092;73.476;2022-08-19T14:33:43;4.32;;;3.92;;
63817;SDS011;53093;55.092;73.476;2022-08-19T14:36:10;4.82;;;4.32;;
63817;SDS011;53093;55.092;73.476;2022-08-19T14:38:37;5.20;;;4.28;;
63817;SDS011;53093;55.092;73.476;2022-08-19T14:41:06;4.82;;;4.13;;
63817;SDS011;53093;55.092;73.476;2022-08-19T14:43:44;5.47;;;4.38;;
63817;SDS011;53093;55.092;73.476;2022-08-19T14:46:14;4.82;;;4.32;;
63817;SDS011;53093;55.092;73.476;2022-08-19T14:48:42;5.93;;;4.00;;
63817;SDS011;53093;55.092;73.476;2022-08-19T14:51:09;6.13;;;4.25;;
63817;SDS011;53093;55.092;73.476;2022-08-19T14:53:37;5.25;;;4.30;;
63817;SDS011;53093;55.092;73.476;2022-08-19T14:56:08;5.00;;;4.30;;
63817;SDS011;53093;55.092;73.476;2022-08-19T14:58:35;5.15;;;4.30;;
63817;SDS011;53093;55.092;73.476;2022-08-19T15:01:02;5.10;;;4.40;;
63817;SDS011;53093;55.092;73.476;2022-08-19T15:03:30;5.45;;;4.30;;